createdAt,value
2018-08-10T00:00:53.074Z,27.50
2018-08-10T00:05:56.809Z,27.50
2018-08-10T00:11:00.502Z,27.47
2018-08-10T00:16:04.216Z,27.42
2018-08-10T00:21:07.988Z,27.25
2018-08-10T00:26:11.707Z,27.33
2018-08-10T00:31:15.542Z,27.34
2018-08-10T00:36:19.291Z,27.31
2018-08-10T00:41:23.032Z,27.25
2018-08-10T00:46:26.827Z,27.26
2018-08-10T00:51:30.515Z,27.27
2018-08-10T00:56:34.253Z,27.20
2018-08-10T01:01:38.104Z,27.20
2018-08-10T01:06:41.874Z,27.17
2018-08-10T01:11:45.673Z,27.18
2018-08-10T01:16:49.374Z,27.14
2018-08-10T01:21:53.071Z,27.10
2018-08-10T01:26:56.823Z,27.06
2018-08-10T01:32:00.454Z,27.03
2018-08-10T01:37:04.132Z,27.01
2018-08-10T01:42:07.859Z,26.93
2018-08-10T01:47:11.520Z,26.91
2018-08-10T01:52:15.224Z,26.92
2018-08-10T01:57:18.956Z,26.88
2018-08-10T02:02:22.723Z,26.86
2018-08-10T02:07:26.489Z,26.85
2018-08-10T02:12:30.196Z,26.83
2018-08-10T02:17:33.782Z,26.84
2018-08-10T02:22:38.008Z,26.84
2018-08-10T02:27:42.702Z,26.84
2018-08-10T02:32:47.344Z,26.83
2018-08-10T02:37:51.090Z,26.76
2018-08-10T02:42:54.867Z,26.75
2018-08-10T02:47:58.518Z,26.78
2018-08-10T02:53:02.227Z,26.72
2018-08-10T02:58:05.821Z,26.68
2018-08-10T03:03:09.552Z,26.71
2018-08-10T03:08:13.218Z,26.68
2018-08-10T03:13:16.880Z,26.68
2018-08-10T03:18:20.573Z,26.70
2018-08-10T03:23:24.267Z,26.68
2018-08-10T03:28:27.929Z,26.70
2018-08-10T03:33:31.717Z,26.67
2018-08-10T03:38:35.344Z,26.30
2018-08-10T03:43:39.088Z,25.95
2018-08-10T03:48:42.798Z,25.12
2018-08-10T03:53:46.496Z,25.06
2018-08-10T03:58:50.128Z,24.87
2018-08-10T04:03:53.783Z,24.62
2018-08-10T04:08:57.426Z,24.28
2018-08-10T04:14:01.059Z,23.84
2018-08-10T04:19:04.652Z,23.72
2018-08-10T04:24:08.294Z,23.18
2018-08-10T04:29:12.080Z,23.22
2018-08-10T04:34:15.683Z,23.46
2018-08-10T04:39:19.357Z,23.15
2018-08-10T04:44:23.045Z,23.38
2018-08-10T04:49:26.805Z,23.31
2018-08-10T04:54:30.478Z,23.44
2018-08-10T04:59:34.061Z,23.21
2018-08-10T05:04:37.715Z,23.11
2018-08-10T05:09:41.702Z,22.95
2018-08-10T05:14:45.367Z,22.88
2018-08-10T05:19:49.001Z,22.94
2018-08-10T05:24:52.682Z,22.87
2018-08-10T05:29:56.358Z,22.85
2018-08-10T05:35:00.012Z,22.88
2018-08-10T05:40:05.144Z,22.76
2018-08-10T05:45:08.976Z,22.80
2018-08-10T05:50:12.639Z,22.86
2018-08-10T05:55:16.265Z,22.67
2018-08-10T06:00:19.886Z,22.66
2018-08-10T06:05:23.494Z,22.66
2018-08-10T06:10:27.160Z,22.60
2018-08-10T06:15:30.964Z,22.54
2018-08-10T06:20:34.559Z,22.55
2018-08-10T06:25:38.176Z,22.52
2018-08-10T06:30:41.830Z,22.47
2018-08-10T06:35:45.485Z,22.41
2018-08-10T06:40:49.094Z,22.33
2018-08-10T06:45:52.904Z,22.24
2018-08-10T06:50:56.612Z,22.15
2018-08-10T06:56:00.671Z,22.28
2018-08-10T07:01:04.381Z,22.77
2018-08-10T07:06:08.034Z,23.19
2018-08-10T07:11:11.670Z,23.44
2018-08-10T07:16:15.403Z,23.63
2018-08-10T07:21:19.047Z,23.76
2018-08-10T07:26:22.690Z,23.84
2018-08-10T07:31:26.333Z,23.99
2018-08-10T07:36:30.003Z,24.07
2018-08-10T07:41:33.652Z,24.13
2018-08-10T07:46:37.638Z,24.20
2018-08-10T07:51:41.282Z,24.29
2018-08-10T07:56:44.939Z,24.37
2018-08-10T08:01:48.585Z,24.42
2018-08-10T08:06:52.216Z,24.42
2018-08-10T08:11:56.029Z,24.50
2018-08-10T08:16:59.659Z,24.64
2018-08-10T08:22:10.647Z,24.71
2018-08-10T08:27:15.592Z,23.55
2018-08-10T08:32:19.223Z,23.07
2018-08-10T08:37:22.950Z,22.96
2018-08-10T08:42:26.657Z,22.78
2018-08-10T08:47:30.255Z,22.61
2018-08-10T08:52:33.995Z,22.53
2018-08-10T08:57:37.659Z,22.66
2018-08-10T09:02:41.293Z,22.57
2018-08-10T09:07:45.006Z,22.66
2018-08-10T09:12:48.618Z,22.53
2018-08-10T09:17:52.271Z,22.53
2018-08-10T09:22:55.925Z,22.60
2018-08-10T09:27:59.567Z,22.67
2018-08-10T09:33:03.263Z,22.71
2018-08-10T09:38:06.948Z,22.79
2018-08-10T09:43:10.577Z,22.61
2018-08-10T09:48:14.314Z,22.66
2018-08-10T09:53:18.030Z,22.60
2018-08-10T09:58:21.791Z,22.64
2018-08-10T10:03:26.878Z,22.74
2018-08-10T10:08:30.503Z,22.70
2018-08-10T10:13:34.190Z,22.80
2018-08-10T10:18:38.514Z,22.94
2018-08-10T10:23:42.091Z,22.92
2018-08-10T10:28:47.620Z,23.00
2018-08-10T10:39:32.470Z,23.00
2018-08-10T10:44:36.023Z,23.42
2018-08-10T10:49:39.690Z,23.38
2018-08-10T10:54:43.301Z,23.53
2018-08-10T10:59:46.976Z,23.59
2018-08-10T11:04:50.647Z,23.74
2018-08-10T11:09:54.261Z,23.72
2018-08-10T11:14:57.922Z,23.75
2018-08-10T11:20:01.638Z,23.60
2018-08-10T11:25:06.660Z,23.61
2018-08-10T11:30:10.959Z,23.80
2018-08-10T11:35:14.597Z,23.84
2018-08-10T11:40:18.298Z,23.89
2018-08-10T11:45:21.904Z,24.12
2018-08-10T11:50:25.575Z,24.32
2018-08-10T11:55:29.209Z,24.45
2018-08-10T12:00:32.803Z,24.58
2018-08-10T12:05:36.461Z,24.67
2018-08-10T12:10:40.158Z,24.75
2018-08-10T12:15:43.729Z,24.81
2018-08-10T12:20:47.537Z,24.89
2018-08-10T12:25:51.286Z,24.96
2018-08-10T12:30:55.170Z,25.04
2018-08-10T12:35:58.945Z,25.12
2018-08-10T12:41:02.677Z,25.20
2018-08-10T12:46:06.479Z,25.27
2018-08-10T12:51:10.271Z,25.35
2018-08-10T12:56:13.995Z,25.42
2018-08-10T13:01:17.698Z,25.50
2018-08-10T13:06:21.313Z,25.58
2018-08-10T13:11:24.941Z,25.70
2018-08-10T13:16:28.589Z,25.78
2018-08-10T13:21:32.342Z,25.83
2018-08-10T13:26:36.004Z,25.87
2018-08-10T13:31:39.738Z,25.95
2018-08-10T13:36:43.475Z,25.99
2018-08-10T13:41:47.149Z,26.00
2018-08-10T13:46:50.867Z,26.07
2018-08-10T13:51:55.041Z,26.11
2018-08-10T13:56:58.646Z,26.11
2018-08-10T14:02:02.316Z,26.11
2018-08-10T14:07:06.075Z,26.29
2018-08-10T14:12:09.732Z,26.18
2018-08-10T14:17:13.530Z,26.27
2018-08-10T14:22:17.130Z,26.10
2018-08-10T14:27:20.783Z,26.11
2018-08-10T14:32:24.467Z,26.11
2018-08-10T14:37:28.091Z,25.91
2018-08-10T14:42:31.672Z,26.14
2018-08-10T14:47:35.282Z,26.27
2018-08-10T14:52:38.898Z,26.05
2018-08-10T14:57:42.496Z,26.29
2018-08-10T15:02:46.754Z,26.35
2018-08-10T15:07:50.573Z,26.31
2018-08-10T15:12:54.477Z,26.42
2018-08-10T15:17:58.016Z,26.53
2018-08-10T15:23:01.627Z,26.76
2018-08-10T15:28:05.292Z,26.89
2018-08-10T15:33:09.781Z,27.11
2018-08-10T15:38:13.625Z,27.07
2018-08-10T15:43:17.326Z,27.36
2018-08-10T15:48:21.123Z,27.15
2018-08-10T15:53:24.809Z,27.36
2018-08-10T15:58:28.720Z,27.61
2018-08-10T16:03:32.385Z,27.51
2018-08-10T16:08:36.377Z,27.45
2018-08-10T16:13:42.050Z,27.25
2018-08-10T16:18:46.406Z,27.45
2018-08-10T16:23:51.681Z,27.57
2018-08-10T16:28:57.413Z,27.41
2018-08-10T16:34:01.795Z,27.31
2018-08-10T16:39:08.778Z,27.33
2018-08-10T16:44:13.430Z,27.30
2018-08-10T16:49:17.524Z,27.31
2018-08-10T16:54:22.081Z,27.20
2018-08-10T16:59:26.781Z,27.27
2018-08-10T17:04:30.442Z,27.16
2018-08-10T17:09:34.920Z,26.93
2018-08-10T17:14:39.541Z,26.95
2018-08-10T17:19:43.178Z,26.96
2018-08-10T17:24:48.956Z,27.40
2018-08-10T17:29:52.752Z,27.35
2018-08-10T17:34:56.491Z,27.30
2018-08-10T17:40:00.085Z,27.21
2018-08-10T17:45:04.066Z,27.07
2018-08-10T17:50:12.230Z,27.12
2018-08-10T17:55:17.816Z,27.08
2018-08-10T18:00:24.784Z,27.25
2018-08-10T18:05:28.886Z,27.21
2018-08-10T18:10:32.611Z,27.11
2018-08-10T18:15:36.470Z,27.12
2018-08-10T18:20:40.399Z,27.03
2018-08-10T18:25:44.233Z,27.08
2018-08-10T18:30:48.052Z,27.09
2018-08-10T18:35:51.785Z,26.92
2018-08-10T18:40:55.595Z,26.95
2018-08-10T18:45:59.193Z,27.01
2018-08-10T18:51:02.888Z,27.02
2018-08-10T18:56:07.632Z,27.06
2018-08-10T19:01:11.954Z,27.04
2018-08-10T19:06:17.204Z,26.95
2018-08-10T19:11:20.931Z,27.04
2018-08-10T19:16:24.657Z,27.08
2018-08-10T19:21:28.253Z,26.96
2018-08-10T19:26:31.855Z,26.93
2018-08-10T19:31:35.847Z,26.76
2018-08-10T19:36:39.486Z,27.00
2018-08-10T19:41:43.583Z,27.06
2018-08-10T19:46:47.255Z,27.10
2018-08-10T19:51:51.048Z,26.99
2018-08-10T19:56:54.701Z,27.08
2018-08-10T20:01:58.467Z,26.56
2018-08-10T20:07:02.532Z,26.68
2018-08-10T20:12:06.149Z,26.72
2018-08-10T20:17:13.517Z,26.68
2018-08-10T20:22:22.035Z,26.98
2018-08-10T20:27:36.085Z,26.70
2018-08-10T20:32:40.153Z,26.61
2018-08-10T20:37:44.286Z,26.60
2018-08-10T20:48:06.277Z,26.73
2018-08-10T20:53:14.583Z,26.78
2018-08-10T20:58:18.815Z,26.74
2018-08-10T21:03:22.818Z,26.50
2018-08-10T21:08:28.012Z,26.76
2018-08-10T21:13:31.999Z,26.60
2018-08-10T21:18:36.534Z,26.50
2018-08-10T21:23:42.023Z,26.59
2018-08-10T21:28:49.270Z,26.69
2018-08-10T21:33:53.189Z,26.48
2018-08-10T21:38:58.073Z,26.82
2018-08-10T21:44:02.268Z,26.44
2018-08-10T21:49:06.539Z,26.47
2018-08-10T21:54:10.904Z,26.60
2018-08-10T21:59:15.611Z,26.40
2018-08-10T22:04:19.910Z,26.54
2018-08-10T22:09:23.791Z,26.34
2018-08-10T22:14:32.876Z,26.29
2018-08-10T22:19:37.402Z,26.31
2018-08-10T22:24:41.330Z,26.42
2018-08-10T22:29:45.477Z,26.30
2018-08-10T22:34:49.742Z,26.51
2018-08-10T22:39:55.139Z,26.18
2018-08-10T22:44:59.046Z,26.14
2018-08-10T22:50:08.023Z,26.05
2018-08-10T22:55:11.952Z,26.15
2018-08-10T23:00:16.693Z,26.50
2018-08-10T23:05:21.587Z,26.19
2018-08-10T23:10:25.511Z,26.20
2018-08-10T23:15:29.956Z,26.09
2018-08-10T23:20:34.086Z,26.03
2018-08-10T23:25:38.027Z,26.03
2018-08-10T23:30:42.009Z,26.06
2018-08-10T23:35:46.404Z,26.03
2018-08-10T23:40:50.229Z,26.05
2018-08-10T23:45:54.071Z,26.04
2018-08-10T23:50:57.813Z,25.94
2018-08-10T23:56:03.009Z,25.89
